Time;durP1;ratioP1;P1;durP2;ratioP2;P2;SDS_P1;SDS_P2;PMS_P1;PMS_P2;Temp;Humidity;BMP_temperature;BMP_pressure;BME280_temperature;BME280_humidity;BME280_pressure;Samples;Min_cycle;Max_cycle;Signal;HPM_P1;HPM_P2
2023/03/08 00:01:26;;;;;;;1.10;1.03;;;17.90;37.40;;;;;;4980002;28;20423;-70
2023/03/08 00:03:56;;;;;;;1.10;1.00;;;17.90;37.40;;;;;;4979169;28;20250;-73
2023/03/08 00:06:24;;;;;;;1.10;1.00;;;17.90;37.40;;;;;;4995195;28;20439;-70
2023/03/08 00:08:52;;;;;;;1.17;1.07;;;17.90;37.40;;;;;;4990137;28;20551;-76
2023/03/08 00:11:18;;;;;;;1.03;0.93;;;17.90;37.40;;;;;;4987867;28;20602;-72
2023/03/08 00:13:43;;;;;;;1.00;0.80;;;17.90;37.40;;;;;;4998218;28;20463;-70
2023/03/08 00:16:12;;;;;;;1.00;0.90;;;17.90;37.40;;;;;;4998113;28;20240;-74
2023/03/08 00:18:38;;;;;;;0.97;0.87;;;17.90;37.40;;;;;;4987726;28;20251;-73
2023/03/08 00:21:16;;;;;;;0.90;0.90;;;17.90;37.40;;;;;;4995921;28;20464;-70
2023/03/08 00:23:42;;;;;;;1.13;1.03;;;17.80;37.30;;;;;;4996765;28;20476;-76
2023/03/08 00:26:09;;;;;;;1.00;1.00;;;17.90;37.40;;;;;;4988876;28;20443;-70
2023/03/08 00:28:34;;;;;;;0.90;0.80;;;17.90;37.50;;;;;;4995371;28;20931;-73
2023/03/08 00:31:09;;;;;;;1.10;1.00;;;17.90;37.40;;;;;;4988691;28;20456;-70
2023/03/08 00:33:35;;;;;;;1.23;1.10;;;17.90;37.40;;;;;;4992098;28;20241;-75
2023/03/08 00:36:13;;;;;;;1.00;0.90;;;17.90;37.40;;;;;;4982128;28;20470;-73
2023/03/08 00:38:38;;;;;;;1.10;1.00;;;17.90;37.40;;;;;;5016031;28;20476;-69
2023/03/08 00:41:04;;;;;;;1.07;0.97;;;17.90;37.60;;;;;;4988436;28;20423;-72
2023/03/08 00:43:29;;;;;;;0.90;0.90;;;17.90;37.40;;;;;;4987445;28;20246;-72
2023/03/08 00:45:55;;;;;;;0.80;0.80;;;17.90;37.40;;;;;;4999060;28;20319;-71
2023/03/08 00:48:21;;;;;;;0.83;0.83;;;17.90;37.40;;;;;;4987185;28;20220;-70
2023/03/08 00:50:46;;;;;;;0.90;0.90;;;17.90;37.40;;;;;;4980301;28;20236;-70
2023/03/08 00:53:12;;;;;;;1.20;1.10;;;17.90;37.40;;;;;;4991010;28;20220;-70
2023/03/08 00:55:38;;;;;;;0.90;0.90;;;17.90;37.40;;;;;;4993336;28;22346;-70
2023/03/08 00:58:04;;;;;;;1.10;1.00;;;17.90;37.40;;;;;;4993000;28;20223;-71
2023/03/08 01:00:30;;;;;;;0.97;0.97;;;17.90;37.40;;;;;;4990928;28;20219;-72
2023/03/08 01:02:56;;;;;;;1.20;1.10;;;17.80;37.30;;;;;;4995073;28;20550;-73
2023/03/08 01:05:22;;;;;;;0.90;0.90;;;17.80;37.30;;;;;;4989555;28;21224;-72
2023/03/08 01:07:48;;;;;;;0.80;0.80;;;17.80;37.30;;;;;;4996556;28;20435;-70
2023/03/08 01:10:13;;;;;;;1.20;1.10;;;17.90;37.40;;;;;;4985125;28;20460;-69
2023/03/08 01:12:39;;;;;;;1.20;0.90;;;17.90;37.40;;;;;;4981828;28;20735;-71
2023/03/08 01:15:05;;;;;;;0.80;0.80;;;17.90;37.40;;;;;;4987003;28;20799;-71
2023/03/08 01:17:31;;;;;;;0.80;0.80;;;17.80;37.30;;;;;;4994049;28;20219;-70
2023/03/08 01:19:56;;;;;;;1.00;0.90;;;17.80;37.30;;;;;;4993878;28;20471;-73
2023/03/08 01:22:22;;;;;;;1.00;0.90;;;17.90;37.40;;;;;;4994391;28;20221;-70
2023/03/08 01:24:48;;;;;;;1.27;1.13;;;17.80;37.30;;;;;;4987829;28;20704;-71
2023/03/08 01:27:15;;;;;;;1.10;1.00;;;17.80;37.30;;;;;;4983318;28;20225;-73
2023/03/08 01:29:42;;;;;;;1.20;1.10;;;17.80;37.30;;;;;;4978173;28;20587;-69
2023/03/08 01:32:09;;;;;;;1.07;0.97;;;17.80;37.30;;;;;;4988664;28;20445;-69
2023/03/08 01:34:38;;;;;;;0.90;0.90;;;17.80;37.30;;;;;;4994224;28;20518;-70
2023/03/08 01:37:04;;;;;;;1.13;1.03;;;17.80;37.30;;;;;;4989775;28;20468;-70
2023/03/08 01:39:29;;;;;;;1.03;1.00;;;17.80;37.30;;;;;;4980568;28;20442;-72
2023/03/08 01:41:55;;;;;;;0.93;0.87;;;17.80;37.30;;;;;;4983514;28;20473;-69
2023/03/08 01:44:24;;;;;;;1.27;0.90;;;17.80;37.30;;;;;;4984528;28;20302;-74
2023/03/08 01:46:51;;;;;;;1.47;0.90;;;17.80;37.30;;;;;;5011122;28;20274;-77
2023/03/08 01:49:16;;;;;;;0.83;0.80;;;17.80;37.30;;;;;;4990551;28;23249;-72
2023/03/08 01:51:50;;;;;;;1.03;0.93;;;17.80;37.30;;;;;;4991485;28;20469;-70
2023/03/08 01:54:28;;;;;;;0.80;0.80;;;17.80;37.30;;;;;;4988911;28;20306;-71
2023/03/08 01:56:58;;;;;;;0.70;0.70;;;17.80;37.30;;;;;;4989069;28;20472;-72
2023/03/08 01:59:25;;;;;;;0.80;0.80;;;17.80;37.30;;;;;;4995355;28;20463;-71
2023/03/08 02:01:51;;;;;;;1.00;0.90;;;17.80;37.30;;;;;;4991734;28;20457;-76
2023/03/08 02:04:16;;;;;;;1.37;1.17;;;17.80;37.30;;;;;;4978125;28;20470;-73
2023/03/08 02:06:43;;;;;;;0.80;0.80;;;17.80;37.30;;;;;;4985918;28;20469;-72
2023/03/08 02:09:09;;;;;;;1.03;0.93;;;17.80;37.30;;;;;;4978210;28;20228;-69
2023/03/08 02:11:38;;;;;;;1.00;0.90;;;17.80;37.30;;;;;;4994018;28;20987;-74
2023/03/08 02:14:04;;;;;;;1.00;0.80;;;17.80;37.30;;;;;;4994359;28;20269;-70
2023/03/08 02:16:29;;;;;;;1.03;0.93;;;17.80;37.30;;;;;;4988387;28;20469;-69
2023/03/08 02:19:05;;;;;;;0.80;0.80;;;17.80;37.50;;;;;;4983580;28;20445;-70
2023/03/08 02:21:31;;;;;;;0.97;0.90;;;17.80;37.30;;;;;;4989451;28;20286;-70
2023/03/08 02:24:05;;;;;;;1.00;0.90;;;17.80;37.30;;;;;;4990137;28;20415;-71
2023/03/08 02:26:32;;;;;;;0.80;0.80;;;17.80;37.30;;;;;;4993914;28;20463;-72
2023/03/08 02:28:58;;;;;;;1.07;1.07;;;17.80;37.30;;;;;;4981983;28;20566;-71
2023/03/08 02:31:23;;;;;;;1.33;0.90;;;17.80;37.30;;;;;;4985821;28;20864;-69
2023/03/08 02:33:49;;;;;;;0.90;0.80;;;17.80;37.30;;;;;;4991370;28;20230;-71
2023/03/08 02:36:14;;;;;;;1.50;0.90;;;17.80;37.30;;;;;;4977078;28;20710;-70
2023/03/08 02:38:40;;;;;;;0.80;0.80;;;17.80;37.30;;;;;;4975738;28;20716;-73
2023/03/08 02:41:05;;;;;;;1.00;0.90;;;17.80;37.30;;;;;;4981097;28;20271;-72
2023/03/08 02:43:31;;;;;;;1.10;1.00;;;17.80;37.30;;;;;;4989528;28;20223;-70
2023/03/08 02:45:56;;;;;;;0.70;0.70;;;17.80;37.30;;;;;;4994235;28;20286;-70
2023/03/08 02:48:22;;;;;;;0.73;0.73;;;17.80;37.30;;;;;;4979506;28;20270;-70
2023/03/08 02:50:47;;;;;;;1.20;1.10;;;17.80;37.30;;;;;;4985042;28;20692;-70
2023/03/08 02:53:13;;;;;;;1.30;0.87;;;17.80;37.30;;;;;;4990442;28;20219;-72
2023/03/08 02:55:38;;;;;;;1.13;0.83;;;17.80;37.30;;;;;;4988023;28;20246;-71
2023/03/08 02:58:05;;;;;;;1.10;0.97;;;17.80;37.30;;;;;;4984990;28;20234;-72
2023/03/08 03:00:31;;;;;;;0.90;0.90;;;17.80;37.30;;;;;;4989069;28;20223;-75
2023/03/08 03:02:56;;;;;;;0.80;0.70;;;17.80;37.30;;;;;;4995244;28;20453;-71
2023/03/08 03:05:22;;;;;;;1.17;0.90;;;17.80;37.30;;;;;;4994815;28;20235;-70
2023/03/08 03:07:48;;;;;;;1.03;0.93;;;17.80;37.30;;;;;;4993754;28;20227;-71
2023/03/08 03:10:13;;;;;;;0.80;0.80;;;17.80;37.30;;;;;;4986756;28;20226;-72
2023/03/08 03:12:40;;;;;;;1.10;1.00;;;17.80;37.30;;;;;;4987941;28;20230;-73
2023/03/08 03:15:08;;;;;;;0.80;0.80;;;17.80;37.30;;;;;;4984138;28;20688;-77
2023/03/08 03:17:35;;;;;;;0.77;0.70;;;17.80;37.30;;;;;;4993602;28;20470;-73
2023/03/08 03:20:01;;;;;;;3.37;0.87;;;17.80;37.30;;;;;;4989740;28;20461;-74
2023/03/08 03:22:27;;;;;;;1.00;0.80;;;17.80;37.30;;;;;;4996153;28;20486;-71
2023/03/08 03:24:52;;;;;;;0.87;0.87;;;17.80;37.30;;;;;;4992886;28;20754;-71
2023/03/08 03:27:18;;;;;;;0.97;0.90;;;17.80;37.30;;;;;;4994527;28;20444;-76
2023/03/08 03:29:44;;;;;;;0.73;0.73;;;17.80;37.30;;;;;;4986719;28;20704;-73
2023/03/08 03:32:10;;;;;;;1.10;1.00;;;17.80;37.30;;;;;;4987122;28;20676;-75
2023/03/08 03:34:36;;;;;;;1.00;0.87;;;17.80;37.30;;;;;;4989642;28;20281;-76
2023/03/08 03:37:02;;;;;;;0.80;0.70;;;17.80;37.30;;;;;;4986870;28;20537;-77
2023/03/08 03:39:32;;;;;;;2.20;0.90;;;17.80;37.30;;;;;;4989684;28;20334;-71
2023/03/08 03:41:58;;;;;;;0.70;0.70;;;17.80;37.30;;;;;;4991246;28;20215;-70
2023/03/08 03:44:24;;;;;;;1.03;0.93;;;17.80;37.30;;;;;;4989847;28;20459;-72
2023/03/08 03:46:49;;;;;;;1.07;0.87;;;17.80;37.30;;;;;;4996640;28;20250;-71
2023/03/08 03:49:15;;;;;;;0.90;0.70;;;17.80;37.30;;;;;;4992266;28;20257;-71
2023/03/08 03:51:40;;;;;;;1.00;0.90;;;17.80;37.30;;;;;;4978813;28;20262;-70
2023/03/08 03:54:06;;;;;;;1.17;0.90;;;17.80;37.30;;;;;;4992180;28;20696;-72
2023/03/08 03:56:31;;;;;;;1.23;0.90;;;17.80;37.30;;;;;;4985765;28;20307;-72
2023/03/08 03:58:57;;;;;;;0.90;0.80;;;17.80;37.30;;;;;;4997767;28;20215;-71
2023/03/08 04:01:25;;;;;;;1.10;1.00;;;17.70;37.20;;;;;;4993459;28;21089;-73
2023/03/08 04:03:51;;;;;;;0.90;0.90;;;17.80;37.30;;;;;;4991408;28;20244;-76
2023/03/08 04:06:19;;;;;;;0.93;0.90;;;17.70;37.20;;;;;;4983896;28;20476;-73
2023/03/08 04:08:45;;;;;;;1.10;1.00;;;17.80;37.30;;;;;;4993572;28;20507;-71
2023/03/08 04:11:16;;;;;;;1.00;0.90;;;17.70;37.20;;;;;;4991521;28;20468;-71
2023/03/08 04:13:42;;;;;;;1.00;0.90;;;17.70;37.20;;;;;;4989806;28;20219;-70
2023/03/08 04:16:16;;;;;;;0.80;0.80;;;17.80;37.30;;;;;;4988363;28;20485;-70
2023/03/08 04:18:42;;;;;;;1.10;1.00;;;17.80;37.30;;;;;;4994962;28;20675;-76
2023/03/08 04:21:08;;;;;;;1.00;0.80;;;17.70;37.20;;;;;;4991142;28;20452;-72
2023/03/08 04:23:34;;;;;;;0.80;0.80;;;17.80;37.30;;;;;;4993937;28;20455;-74
2023/03/08 04:26:01;;;;;;;1.00;0.90;;;17.70;37.20;;;;;;4992388;28;20219;-70
2023/03/08 04:28:27;;;;;;;2.10;0.80;;;17.70;37.20;;;;;;4995210;28;20478;-71
2023/03/08 04:30:53;;;;;;;0.80;0.80;;;17.70;37.30;;;;;;4981085;28;20492;-72
2023/03/08 04:33:19;;;;;;;1.00;0.90;;;17.70;37.20;;;;;;4989554;28;20492;-70
2023/03/08 04:35:45;;;;;;;1.20;0.70;;;17.70;37.20;;;;;;4994181;28;20235;-69
2023/03/08 04:38:11;;;;;;;0.87;0.80;;;17.70;37.20;;;;;;4987163;28;20472;-74
2023/03/08 04:41:00;;;;;;;0.80;0.77;;;17.70;37.20;;;;;;4982838;28;21615;-73
2023/03/08 04:43:22;;;;;;;0.90;0.77;;;17.70;37.20;;;;;;4985015;28;20234;-70
2023/03/08 04:45:47;;;;;;;0.80;0.80;;;17.70;37.20;;;;;;4989000;28;20476;-69
2023/03/08 04:48:13;;;;;;;0.80;0.80;;;17.80;37.30;;;;;;4996007;28;20219;-71
2023/03/08 04:50:39;;;;;;;0.80;0.80;;;17.70;37.20;;;;;;4992885;28;20223;-70
2023/03/08 04:53:05;;;;;;;2.50;0.90;;;17.70;37.20;;;;;;4983444;28;20224;-73
2023/03/08 04:55:30;;;;;;;1.00;0.87;;;17.80;37.30;;;;;;4988780;28;20263;-70
2023/03/08 04:57:56;;;;;;;1.00;0.90;;;17.80;37.30;;;;;;4984711;28;21998;-70
2023/03/08 05:00:22;;;;;;;1.07;0.97;;;17.80;37.30;;;;;;4984876;28;20340;-71
2023/03/08 05:02:47;;;;;;;0.97;0.90;;;17.80;37.30;;;;;;4996131;28;20238;-72
2023/03/08 05:05:13;;;;;;;0.87;0.80;;;17.80;38.00;;;;;;4985413;28;20515;-77
2023/03/08 05:07:38;;;;;;;0.80;0.80;;;17.80;37.30;;;;;;4995578;28;20699;-70
2023/03/08 05:10:04;;;;;;;1.00;0.90;;;17.80;37.30;;;;;;4992962;28;20273;-72
2023/03/08 05:12:30;;;;;;;1.00;0.90;;;17.80;37.30;;;;;;4992450;28;20326;-73
2023/03/08 05:14:55;;;;;;;1.07;0.97;;;17.80;37.30;;;;;;4974962;28;20350;-71
2023/03/08 05:17:21;;;;;;;0.90;0.90;;;17.80;37.30;;;;;;4995797;28;20220;-71
2023/03/08 05:19:46;;;;;;;0.80;0.80;;;17.80;37.30;;;;;;4988668;28;20234;-70
2023/03/08 05:22:12;;;;;;;0.83;0.77;;;17.90;37.40;;;;;;4994588;28;20260;-70
2023/03/08 05:24:39;;;;;;;1.00;0.90;;;17.90;37.30;;;;;;4988216;28;20298;-72
2023/03/08 05:27:08;;;;;;;3.00;0.90;;;17.90;37.30;;;;;;4995458;28;20224;-72
2023/03/08 05:29:36;;;;;;;1.10;1.03;;;17.90;37.20;;;;;;4981045;28;20497;-73
2023/03/08 05:32:02;;;;;;;1.07;0.97;;;17.90;37.20;;;;;;4989788;28;20471;-69
2023/03/08 05:34:28;;;;;;;0.80;0.80;;;17.90;37.20;;;;;;4987668;28;20461;-70
2023/03/08 05:36:54;;;;;;;1.00;0.90;;;17.90;37.20;;;;;;4990348;28;20461;-73
2023/03/08 05:39:20;;;;;;;0.80;0.80;;;17.90;37.20;;;;;;4990321;28;20488;-70
2023/03/08 05:41:45;;;;;;;1.00;0.90;;;17.90;37.30;;;;;;4978307;28;21442;-69
2023/03/08 05:44:11;;;;;;;2.83;0.93;;;17.90;37.30;;;;;;4992776;28;20231;-69
2023/03/08 05:46:39;;;;;;;2.43;1.03;;;17.90;37.20;;;;;;4990669;28;20235;-71
2023/03/08 05:49:05;;;;;;;3.33;0.83;;;17.90;37.20;;;;;;4986625;28;20258;-75
2023/03/08 05:51:31;;;;;;;5.60;0.80;;;17.90;37.20;;;;;;4990324;28;20472;-75
2023/03/08 05:53:57;;;;;;;1.77;1.00;;;18.00;37.10;;;;;;4997236;28;21284;-72
2023/03/08 05:56:23;;;;;;;1.00;0.80;;;17.90;37.20;;;;;;4989384;28;20484;-71
2023/03/08 05:58:50;;;;;;;0.80;0.73;;;18.00;37.20;;;;;;4984900;28;20223;-78
2023/03/08 06:01:21;;;;;;;1.87;0.80;;;18.00;37.30;;;;;;4984765;28;20495;-71
2023/03/08 06:03:49;;;;;;;0.93;0.83;;;18.00;37.20;;;;;;4992693;28;20465;-69
2023/03/08 06:06:15;;;;;;;1.23;0.90;;;18.00;37.30;;;;;;4990679;28;20457;-69
2023/03/08 06:08:41;;;;;;;0.80;0.80;;;18.00;37.20;;;;;;4991884;28;20457;-70
2023/03/08 06:11:07;;;;;;;0.80;0.70;;;18.00;37.30;;;;;;4991623;28;20822;-70
2023/03/08 06:13:33;;;;;;;1.50;1.17;;;18.00;37.30;;;;;;4983630;28;20468;-72
2023/03/08 06:15:59;;;;;;;1.00;0.90;;;18.00;37.30;;;;;;5012234;28;20251;-72
2023/03/08 06:18:26;;;;;;;1.00;0.90;;;18.00;37.50;;;;;;4983765;28;20439;-72
2023/03/08 06:20:59;;;;;;;5.63;0.70;;;18.00;37.40;;;;;;4978336;28;20974;-70
2023/03/08 06:23:27;;;;;;;0.90;0.80;;;18.00;37.40;;;;;;4952093;28;20710;-76
2023/03/08 06:25:53;;;;;;;1.17;0.87;;;18.00;37.50;;;;;;4982622;28;20438;-72
2023/03/08 06:28:19;;;;;;;0.90;0.80;;;18.00;37.50;;;;;;4988017;28;20468;-70
2023/03/08 06:30:48;;;;;;;0.80;0.73;;;18.00;37.50;;;;;;4970950;28;20771;-68
2023/03/08 06:33:14;;;;;;;0.90;0.90;;;18.00;37.50;;;;;;4973931;28;20874;-68
2023/03/08 06:35:40;;;;;;;1.20;0.90;;;18.00;37.50;;;;;;4977367;28;20508;-69
2023/03/08 06:38:05;;;;;;;1.30;1.20;;;18.00;37.50;;;;;;4985609;28;20957;-69
2023/03/08 06:40:31;;;;;;;0.80;0.73;;;18.00;37.50;;;;;;4978483;28;20279;-77
2023/03/08 06:42:57;;;;;;;0.80;0.80;;;18.00;37.50;;;;;;4987470;28;20235;-67
2023/03/08 06:45:22;;;;;;;1.47;1.03;;;18.10;37.60;;;;;;4984794;28;20220;-75
2023/03/08 06:47:48;;;;;;;3.00;0.87;;;18.10;37.60;;;;;;4994308;28;21513;-73
2023/03/08 06:50:13;;;;;;;1.20;1.10;;;18.10;37.60;;;;;;4995137;28;21038;-72
2023/03/08 06:52:39;;;;;;;1.13;0.93;;;18.10;37.60;;;;;;4994821;28;20278;-75
2023/03/08 06:55:05;;;;;;;1.20;1.10;;;18.10;37.60;;;;;;4989485;28;20226;-77
2023/03/08 06:57:31;;;;;;;3.53;1.03;;;18.10;37.60;;;;;;4992351;28;20227;-75
2023/03/08 06:59:57;;;;;;;5.23;1.20;;;18.10;37.60;;;;;;4978564;28;20448;-72
2023/03/08 07:02:23;;;;;;;0.90;0.80;;;18.00;37.50;;;;;;4989349;28;20962;-72
2023/03/08 07:04:48;;;;;;;2.10;1.00;;;18.10;37.60;;;;;;4990722;28;20481;-73
2023/03/08 07:07:14;;;;;;;1.20;1.03;;;18.10;37.60;;;;;;4989514;28;20328;-73
2023/03/08 07:09:39;;;;;;;1.00;0.90;;;18.10;37.60;;;;;;4991744;28;20255;-71
2023/03/08 07:12:05;;;;;;;2.57;0.90;;;18.10;37.60;;;;;;4994645;28;20223;-74
2023/03/08 07:14:30;;;;;;;3.67;1.17;;;18.10;37.60;;;;;;4991925;28;20223;-73
2023/03/08 07:16:56;;;;;;;1.60;1.30;;;18.10;37.60;;;;;;4986985;28;20228;-71
2023/03/08 07:19:21;;;;;;;4.07;1.00;;;18.10;37.60;;;;;;4991503;28;20227;-71
2023/03/08 07:21:47;;;;;;;1.40;1.30;;;18.10;37.60;;;;;;4985552;28;20227;-70
2023/03/08 07:24:12;;;;;;;1.73;1.63;;;18.10;37.60;;;;;;4974633;28;20223;-71
2023/03/08 07:26:38;;;;;;;1.23;1.13;;;18.10;37.60;;;;;;4988143;28;20223;-71
2023/03/08 07:29:04;;;;;;;4.10;0.93;;;18.10;37.90;;;;;;4994126;28;20304;-71
2023/03/08 07:31:31;;;;;;;3.00;0.90;;;18.10;37.60;;;;;;4983244;28;20232;-72
2023/03/08 07:33:56;;;;;;;1.53;1.07;;;18.10;37.60;;;;;;4991010;28;20218;-72
2023/03/08 07:36:22;;;;;;;2.20;1.03;;;18.10;37.60;;;;;;4993042;28;20439;-73
2023/03/08 07:38:48;;;;;;;1.30;1.20;;;18.10;37.60;;;;;;4984487;28;20219;-71
2023/03/08 07:41:13;;;;;;;1.83;1.37;;;18.10;37.60;;;;;;4985439;28;20227;-72
2023/03/08 07:43:39;;;;;;;0.90;0.90;;;18.10;37.60;;;;;;4992520;28;20237;-71
2023/03/08 07:46:05;;;;;;;1.20;0.90;;;18.10;37.60;;;;;;5015875;28;20240;-73
2023/03/08 07:48:31;;;;;;;1.07;1.00;;;18.10;37.60;;;;;;4991785;28;20220;-73
2023/03/08 07:51:14;;;;;;;1.10;1.00;;;18.10;37.60;;;;;;5001028;28;20223;-72
2023/03/08 07:53:40;;;;;;;0.80;0.80;;;18.10;37.60;;;;;;4982044;28;20473;-72
2023/03/08 07:56:06;;;;;;;1.03;0.93;;;18.10;37.60;;;;;;4985495;28;20440;-72
2023/03/08 07:58:31;;;;;;;1.17;1.07;;;18.10;37.60;;;;;;4989812;28;22160;-72
2023/03/08 08:00:57;;;;;;;0.80;0.80;;;18.10;37.60;;;;;;4987108;28;20231;-73
2023/03/08 08:03:22;;;;;;;1.07;0.97;;;18.10;37.60;;;;;;4995424;28;20215;-71
2023/03/08 08:05:48;;;;;;;0.83;0.83;;;18.10;37.60;;;;;;4986705;28;20215;-72
2023/03/08 08:08:13;;;;;;;1.10;0.80;;;18.10;37.60;;;;;;4992158;28;20618;-71
2023/03/08 08:10:40;;;;;;;1.10;1.00;;;18.10;37.60;;;;;;4981211;28;20704;-71
2023/03/08 08:13:06;;;;;;;1.13;1.03;;;18.10;37.60;;;;;;4979113;28;20219;-73
2023/03/08 08:15:32;;;;;;;1.00;0.90;;;18.10;37.60;;;;;;4978591;28;20485;-72
2023/03/08 08:17:58;;;;;;;1.70;1.10;;;18.10;37.60;;;;;;4975979;28;20232;-71
2023/03/08 08:20:25;;;;;;;1.60;1.00;;;18.10;37.60;;;;;;4974192;28;20736;-72
2023/03/08 08:22:52;;;;;;;1.80;0.93;;;18.10;37.60;;;;;;4976262;28;20872;-72
2023/03/08 08:25:19;;;;;;;1.37;1.27;;;18.10;37.60;;;;;;4975489;28;20478;-70
2023/03/08 08:27:45;;;;;;;0.90;0.90;;;18.10;37.60;;;;;;4985092;28;20477;-70
2023/03/08 08:30:13;;;;;;;1.20;1.10;;;18.10;37.60;;;;;;4985371;28;20930;-72
2023/03/08 08:32:39;;;;;;;0.87;0.87;;;18.10;37.60;;;;;;4999423;28;20217;-71
2023/03/08 08:35:05;;;;;;;0.83;0.80;;;18.10;37.60;;;;;;4987346;28;20464;-72
2023/03/08 08:37:31;;;;;;;0.83;0.80;;;18.10;37.60;;;;;;4994369;28;20805;-72
2023/03/08 08:39:57;;;;;;;1.00;0.90;;;18.10;37.60;;;;;;4992019;28;20551;-72
2023/03/08 08:42:23;;;;;;;0.90;0.80;;;18.10;37.60;;;;;;4992116;28;20487;-70
2023/03/08 08:44:50;;;;;;;1.57;1.30;;;18.10;37.60;;;;;;4987368;28;20453;-70
2023/03/08 08:47:16;;;;;;;2.17;1.00;;;18.10;37.60;;;;;;4991691;28;20235;-69
2023/03/08 08:49:42;;;;;;;1.37;0.90;;;18.10;37.60;;;;;;4998183;28;20801;-70
2023/03/08 08:52:07;;;;;;;0.90;0.90;;;18.10;37.60;;;;;;4997452;28;20220;-70
2023/03/08 08:54:33;;;;;;;1.13;1.00;;;18.10;37.60;;;;;;5005647;28;20221;-70
2023/03/08 08:56:59;;;;;;;1.10;1.00;;;18.10;37.60;;;;;;5007690;28;20600;-69
2023/03/08 08:59:24;;;;;;;1.10;1.00;;;18.10;37.60;;;;;;5000661;28;20258;-69
2023/03/08 09:01:50;;;;;;;1.30;1.03;;;18.10;37.60;;;;;;4998344;28;20584;-70
2023/03/08 09:04:16;;;;;;;1.20;1.10;;;18.10;37.60;;;;;;5002155;28;20269;-70
2023/03/08 09:06:41;;;;;;;0.80;0.80;;;18.10;37.60;;;;;;5001984;28;20301;-69
2023/03/08 09:09:08;;;;;;;1.60;1.10;;;18.10;37.60;;;;;;4994000;28;20251;-69
2023/03/08 09:11:34;;;;;;;1.00;0.90;;;18.10;37.60;;;;;;5028398;28;20586;-69
2023/03/08 09:14:01;;;;;;;1.00;0.90;;;18.10;37.60;;;;;;5001548;28;20480;-69
2023/03/08 09:16:28;;;;;;;1.07;0.97;;;18.10;37.60;;;;;;4992916;28;20550;-66
2023/03/08 09:18:57;;;;;;;1.10;1.00;;;18.10;37.60;;;;;;4997468;28;20468;-71
2023/03/08 09:21:24;;;;;;;1.10;1.00;;;18.10;37.60;;;;;;4996396;28;20533;-69
2023/03/08 09:23:50;;;;;;;1.63;0.90;;;18.10;37.60;;;;;;4995098;28;20468;-70
2023/03/08 09:26:16;;;;;;;1.10;1.00;;;18.10;37.60;;;;;;4999580;28;20456;-68
2023/03/08 09:28:42;;;;;;;0.93;0.90;;;18.10;37.60;;;;;;4990400;28;20759;-68
2023/03/08 09:31:11;;;;;;;1.10;1.00;;;18.00;37.50;;;;;;4990328;28;20453;-68
2023/03/08 09:33:43;;;;;;;1.10;1.00;;;18.10;37.60;;;;;;4988041;28;20704;-68
2023/03/08 09:36:09;;;;;;;1.10;1.00;;;18.10;37.60;;;;;;4985032;28;20970;-70
2023/03/08 09:38:35;;;;;;;1.23;1.07;;;18.10;37.60;;;;;;4998391;28;20510;-68
2023/03/08 09:41:14;;;;;;;1.27;1.00;;;18.00;37.50;;;;;;4988038;28;20664;-71
2023/03/08 09:43:46;;;;;;;1.00;0.90;;;18.00;37.50;;;;;;4995018;28;20231;-69
2023/03/08 09:46:15;;;;;;;1.17;1.00;;;18.00;37.50;;;;;;4987649;28;21006;-70
2023/03/08 09:48:45;;;;;;;1.20;1.10;;;18.10;37.60;;;;;;4998424;28;20468;-70
2023/03/08 09:51:14;;;;;;;1.20;1.10;;;18.00;37.50;;;;;;4980671;28;20461;-69
2023/03/08 09:53:45;;;;;;;1.10;0.90;;;18.00;37.50;;;;;;4981770;28;20469;-69
2023/03/08 09:56:19;;;;;;;1.33;1.10;;;18.00;37.50;;;;;;4989327;28;20584;-69
2023/03/08 09:59:08;;;;;;;0.90;0.90;;;18.00;37.50;;;;;;4993801;28;20481;-69
2023/03/08 10:01:47;;;;;;;1.20;1.00;;;18.00;37.50;;;;;;5025119;28;20462;-69
2023/03/08 10:04:40;;;;;;;0.97;0.87;;;18.00;37.50;;;;;;4994553;28;20458;-68
2023/03/08 10:07:18;;;;;;;0.80;0.80;;;18.10;37.60;;;;;;4996337;28;20538;-69
2023/03/08 10:10:04;;;;;;;0.90;0.80;;;18.00;37.50;;;;;;4987998;28;21245;-69
2023/03/08 10:12:57;;;;;;;0.90;0.83;;;18.00;37.50;;;;;;5008949;28;20576;-71
2023/03/08 10:15:25;;;;;;;1.73;1.07;;;18.00;37.50;;;;;;4997827;28;21118;-70
2023/03/08 10:18:03;;;;;;;1.03;0.93;;;18.00;37.50;;;;;;4996306;28;20742;-71
2023/03/08 10:20:32;;;;;;;1.10;0.93;;;18.00;37.50;;;;;;4985593;28;21015;-68
2023/03/08 10:23:01;;;;;;;1.00;0.90;;;18.00;37.50;;;;;;4992592;28;20441;-69
2023/03/08 10:25:30;;;;;;;1.10;1.00;;;18.00;37.50;;;;;;4990920;28;20602;-69
2023/03/08 10:27:58;;;;;;;0.90;0.90;;;18.00;37.50;;;;;;4992160;28;20435;-69
2023/03/08 10:30:27;;;;;;;0.97;0.97;;;18.00;37.50;;;;;;4998481;28;21000;-71
2023/03/08 10:32:58;;;;;;;1.63;1.20;;;18.00;37.50;;;;;;4999263;28;20429;-71
2023/03/08 10:35:33;;;;;;;1.07;1.00;;;18.00;37.50;;;;;;4997215;28;21131;-68
2023/03/08 10:37:58;;;;;;;0.90;0.90;;;18.00;37.50;;;;;;4983714;28;20479;-69
2023/03/08 10:40:25;;;;;;;0.83;0.80;;;18.00;37.50;;;;;;4995385;28;20515;-69
2023/03/08 10:42:56;;;;;;;0.83;0.83;;;18.00;37.50;;;;;;4997161;28;20977;-69
2023/03/08 10:45:24;;;;;;;1.60;0.90;;;18.00;37.50;;;;;;4993126;28;20419;-69
2023/03/08 10:48:04;;;;;;;0.93;0.93;;;18.00;37.50;;;;;;4981884;28;20465;-70
2023/03/08 10:50:35;;;;;;;1.67;1.10;;;18.00;37.50;;;;;;4988579;28;21381;-69
2023/03/08 10:53:17;;;;;;;1.00;0.90;;;18.00;37.50;;;;;;4996327;28;20427;-70
2023/03/08 10:55:46;;;;;;;1.60;1.10;;;18.00;37.50;;;;;;4996978;28;20531;-69
2023/03/08 10:58:31;;;;;;;1.10;1.00;;;18.00;37.50;;;;;;4999478;28;20465;-69
2023/03/08 11:01:00;;;;;;;1.00;0.90;;;18.00;37.50;;;;;;4998948;28;20477;-71
2023/03/08 11:03:26;;;;;;;1.10;1.00;;;18.00;38.20;;;;;;4991709;28;20507;-71
2023/03/08 11:05:53;;;;;;;1.27;1.17;;;18.00;37.60;;;;;;4988193;28;20456;-71
2023/03/08 11:08:22;;;;;;;1.00;0.90;;;18.00;37.50;;;;;;4988548;28;20991;-68
2023/03/08 11:11:09;;;;;;;1.00;0.90;;;18.00;37.50;;;;;;4991335;28;21199;-69
2023/03/08 11:13:43;;;;;;;1.20;1.10;;;18.00;37.50;;;;;;4988326;28;20446;-68
2023/03/08 11:16:33;;;;;;;0.97;0.90;;;18.00;37.50;;;;;;4995106;28;20548;-71
2023/03/08 11:19:29;;;;;;;0.80;0.80;;;18.00;37.50;;;;;;4998101;28;20492;-68
2023/03/08 11:22:06;;;;;;;1.30;1.20;;;18.00;37.50;;;;;;4981158;28;20878;-69
2023/03/08 11:24:51;;;;;;;1.00;1.00;;;18.00;37.50;;;;;;4988619;28;20432;-70
2023/03/08 11:27:46;;;;;;;0.80;0.80;;;18.00;37.50;;;;;;4989547;28;20462;-69
2023/03/08 11:30:51;;;;;;;1.10;1.00;;;18.00;37.50;;;;;;4985903;28;20951;-69
2023/03/08 11:33:45;;;;;;;1.93;1.10;;;18.00;37.50;;;;;;4989486;28;20461;-68
2023/03/08 11:36:49;;;;;;;1.30;1.20;;;18.00;37.50;;;;;;4981284;28;20947;-69
2023/03/08 11:39:33;;;;;;;1.80;1.20;;;18.00;37.50;;;;;;4987861;28;20553;-70
2023/03/08 11:42:24;;;;;;;1.30;1.00;;;18.00;37.50;;;;;;4989619;28;20432;-68
2023/03/08 11:45:17;;;;;;;1.10;1.00;;;18.00;37.50;;;;;;4974341;28;20459;-69
2023/03/08 11:48:07;;;;;;;2.00;1.10;;;18.00;37.50;;;;;;4990673;28;20477;-69
2023/03/08 11:50:52;;;;;;;1.10;1.00;;;18.00;37.50;;;;;;4980502;28;20443;-69
2023/03/08 11:53:25;;;;;;;1.33;1.00;;;18.00;37.50;;;;;;4983240;28;20776;-69
2023/03/08 11:56:25;;;;;;;1.47;0.97;;;18.00;37.50;;;;;;4980573;28;20941;-68
2023/03/08 11:59:01;;;;;;;1.20;1.10;;;18.00;37.50;;;;;;4989824;28;20491;-69
2023/03/08 12:01:49;;;;;;;0.93;0.93;;;18.00;37.50;;;;;;4993642;28;20431;-70
2023/03/08 12:04:20;;;;;;;1.40;1.30;;;18.00;37.50;;;;;;4988153;28;20552;-69
2023/03/08 12:06:46;;;;;;;1.10;1.00;;;18.00;37.50;;;;;;4992772;28;22074;-68
2023/03/08 12:09:33;;;;;;;1.77;1.63;;;18.00;37.50;;;;;;4991191;28;20479;-69
2023/03/08 12:12:30;;;;;;;1.63;1.00;;;18.00;37.50;;;;;;4993667;28;20427;-69
2023/03/08 12:15:01;;;;;;;1.13;1.03;;;18.00;37.50;;;;;;4985605;28;20541;-70
2023/03/08 12:17:34;;;;;;;1.50;1.30;;;18.00;37.50;;;;;;4987159;28;21709;-69
2023/03/08 12:20:01;;;;;;;1.30;1.20;;;18.00;37.50;;;;;;4994369;28;20463;-70
2023/03/08 12:22:47;;;;;;;1.20;1.10;;;18.00;37.50;;;;;;4992321;28;20464;-70
2023/03/08 12:25:31;;;;;;;1.87;1.00;;;18.00;37.50;;;;;;4991505;28;20464;-68
2023/03/08 12:28:09;;;;;;;1.37;1.27;;;18.00;37.50;;;;;;4990571;28;21181;-68
2023/03/08 12:30:40;;;;;;;2.50;1.03;;;18.00;37.50;;;;;;4987897;28;20440;-68
2023/03/08 12:33:11;;;;;;;0.93;0.87;;;18.00;37.50;;;;;;4990348;28;20445;-70
2023/03/08 12:35:48;;;;;;;2.47;0.90;;;18.00;37.50;;;;;;4987714;28;20473;-68
2023/03/08 12:38:16;;;;;;;1.47;1.37;;;18.00;37.50;;;;;;4986832;28;20480;-69
2023/03/08 12:40:45;;;;;;;1.10;1.00;;;18.00;37.50;;;;;;4986564;28;20462;-68
2023/03/08 12:43:20;;;;;;;1.20;1.10;;;18.00;37.50;;;;;;4990038;28;20472;-70
2023/03/08 12:46:08;;;;;;;1.00;0.90;;;18.00;37.50;;;;;;4988227;28;20496;-68
2023/03/08 12:48:38;;;;;;;1.20;1.10;;;18.00;37.50;;;;;;4983405;28;20515;-69
2023/03/08 12:51:19;;;;;;;1.20;1.10;;;18.00;37.50;;;;;;4979168;28;20457;-70
2023/03/08 12:53:55;;;;;;;1.30;1.20;;;18.00;37.50;;;;;;4975774;28;20476;-70
2023/03/08 12:56:21;;;;;;;1.63;1.03;;;18.00;37.50;;;;;;4974411;28;21106;-70
2023/03/08 12:58:56;;;;;;;1.30;1.13;;;18.00;37.50;;;;;;4986506;28;20469;-70